Time;durP1;ratioP1;P1;durP2;ratioP2;P2;SDS_P1;SDS_P2;PMS_P1;PMS_P2;Temp;Humidity;BMP_temperature;BMP_pressure;BME280_temperature;BME280_humidity;BME280_pressure;Samples;Min_cycle;Max_cycle;Signal;HPM_P1;HPM_P2
2023/11/07 00:01:07;;;;;;;4.10;0.87;;;9.20;99.90;;;;;;4115288;28;20216;-79
2023/11/07 00:03:09;;;;;;;3.27;0.70;;;9.20;99.90;;;;;;4114108;28;20240;-80
2023/11/07 00:05:11;;;;;;;1.63;0.70;;;9.20;99.90;;;;;;4109889;28;20234;-80
2023/11/07 00:07:16;;;;;;;1.80;0.70;;;9.20;99.90;;;;;;4112097;28;20255;-80
2023/11/07 00:09:18;;;;;;;2.80;0.70;;;9.20;99.90;;;;;;4120437;28;20211;-80
2023/11/07 00:11:20;;;;;;;2.33;0.70;;;9.20;99.90;;;;;;4114905;28;20624;-80
2023/11/07 00:13:22;;;;;;;1.67;0.70;;;9.20;99.90;;;;;;4112172;28;20262;-79
2023/11/07 00:15:26;;;;;;;1.10;0.67;;;9.20;99.90;;;;;;4115776;28;20235;-79
2023/11/07 00:17:27;;;;;;;1.97;0.57;;;9.20;99.90;;;;;;4107917;28;20693;-79
2023/11/07 00:19:29;;;;;;;1.20;0.70;;;9.20;99.90;;;;;;4112868;28;20212;-80
2023/11/07 00:21:31;;;;;;;1.80;0.50;;;9.20;99.90;;;;;;4113716;28;20228;-79
2023/11/07 00:23:33;;;;;;;2.67;0.70;;;9.20;99.90;;;;;;4112211;28;20212;-81
2023/11/07 00:25:35;;;;;;;1.20;0.70;;;9.20;99.90;;;;;;4111811;28;20238;-81
2023/11/07 00:27:37;;;;;;;2.90;0.70;;;9.20;99.90;;;;;;4112453;28;20210;-81
2023/11/07 00:29:38;;;;;;;1.13;0.77;;;9.30;99.90;;;;;;4115874;28;21022;-81
2023/11/07 00:31:42;;;;;;;2.47;0.50;;;9.30;99.90;;;;;;4117325;28;20203;-80
2023/11/07 00:33:43;;;;;;;1.73;0.57;;;9.30;99.90;;;;;;4114688;28;20207;-83
2023/11/07 00:35:45;;;;;;;1.33;0.60;;;9.30;99.90;;;;;;4120593;28;20213;-80
2023/11/07 00:37:47;;;;;;;1.27;0.43;;;9.30;99.90;;;;;;4115335;28;20582;-81
2023/11/07 00:39:49;;;;;;;2.27;0.60;;;9.30;99.90;;;;;;4110931;28;20267;-81
2023/11/07 00:41:51;;;;;;;0.60;0.40;;;9.30;99.90;;;;;;4114009;28;20566;-80
2023/11/07 00:43:54;;;;;;;2.13;0.40;;;9.30;99.90;;;;;;4119312;28;20210;-80
2023/11/07 00:45:56;;;;;;;0.93;0.60;;;9.30;99.90;;;;;;4111719;28;20269;-81
2023/11/07 00:48:00;;;;;;;0.63;0.40;;;9.30;99.90;;;;;;4110150;28;20728;-80
2023/11/07 00:50:01;;;;;;;1.73;0.40;;;9.30;99.90;;;;;;4111559;28;20214;-80
2023/11/07 00:52:03;;;;;;;1.40;0.50;;;9.60;99.90;;;;;;4110239;28;20212;-82
2023/11/07 00:54:05;;;;;;;2.00;0.90;;;9.30;99.90;;;;;;4115140;28;20232;-81
2023/11/07 00:56:08;;;;;;;0.50;0.40;;;9.30;99.90;;;;;;4113082;28;20212;-83
2023/11/07 00:58:11;;;;;;;0.63;0.50;;;9.20;99.90;;;;;;4124210;28;20224;-81
2023/11/07 01:00:15;;;;;;;1.27;0.47;;;9.30;99.90;;;;;;4119013;28;20216;-81
2023/11/07 01:02:17;;;;;;;1.67;0.60;;;9.30;99.90;;;;;;4122729;28;20239;-82
2023/11/07 01:04:20;;;;;;;1.80;0.53;;;9.30;99.90;;;;;;4115604;28;20249;-81
2023/11/07 01:06:22;;;;;;;1.53;0.60;;;9.20;99.90;;;;;;4112348;28;20986;-81
2023/11/07 01:08:23;;;;;;;2.70;0.60;;;9.20;99.90;;;;;;4119234;28;20362;-81
2023/11/07 01:10:25;;;;;;;1.00;0.63;;;9.20;99.90;;;;;;4120174;28;20196;-83
2023/11/07 01:12:27;;;;;;;3.07;0.63;;;9.10;99.90;;;;;;4110971;28;20220;-82
2023/11/07 01:14:29;;;;;;;0.93;0.50;;;9.20;99.90;;;;;;4109631;28;20240;-83
2023/11/07 01:16:31;;;;;;;2.53;1.30;;;9.10;99.90;;;;;;4118295;28;20202;-82
2023/11/07 01:18:36;;;;;;;1.53;0.57;;;9.10;99.90;;;;;;4109127;28;20687;-81
2023/11/07 01:20:39;;;;;;;2.80;0.60;;;9.10;99.90;;;;;;4116598;28;20211;-81
2023/11/07 01:22:41;;;;;;;2.10;0.63;;;9.10;99.90;;;;;;4117777;28;20231;-81
2023/11/07 01:24:43;;;;;;;0.70;0.40;;;9.00;99.90;;;;;;4120345;28;20233;-81
2023/11/07 01:26:45;;;;;;;2.47;0.90;;;9.00;99.90;;;;;;4118505;28;20207;-81
2023/11/07 01:28:47;;;;;;;0.67;0.40;;;9.00;99.90;;;;;;4116184;28;20204;-83
2023/11/07 01:30:49;;;;;;;0.83;0.60;;;9.00;99.90;;;;;;4114260;28;20204;-81
2023/11/07 01:32:51;;;;;;;2.30;0.63;;;8.90;99.90;;;;;;4115115;28;20290;-81
2023/11/07 01:34:54;;;;;;;2.77;0.60;;;8.90;99.90;;;;;;4113645;28;20240;-82
2023/11/07 01:36:57;;;;;;;1.23;0.50;;;8.90;99.90;;;;;;4111835;28;20219;-81
2023/11/07 01:38:59;;;;;;;1.70;0.50;;;8.90;99.90;;;;;;4112101;28;20238;-82
2023/11/07 01:41:01;;;;;;;1.10;0.50;;;8.90;99.90;;;;;;4113288;28;20273;-81
2023/11/07 01:43:12;;;;;;;2.37;0.53;;;8.90;99.90;;;;;;4113269;28;20226;-80
2023/11/07 01:45:14;;;;;;;3.87;0.57;;;8.90;99.90;;;;;;4114986;28;20726;-82
2023/11/07 01:47:15;;;;;;;0.97;0.50;;;8.90;99.90;;;;;;4109708;28;20203;-81
2023/11/07 01:49:17;;;;;;;1.83;0.47;;;8.90;99.90;;;;;;4122440;28;20259;-82
2023/11/07 01:51:20;;;;;;;1.13;0.50;;;9.00;99.90;;;;;;4115590;28;20671;-81
2023/11/07 01:53:24;;;;;;;1.03;0.50;;;9.00;99.90;;;;;;4118907;28;20222;-81
2023/11/07 01:55:26;;;;;;;4.47;0.60;;;9.00;99.90;;;;;;4114261;28;20247;-80
2023/11/07 01:57:27;;;;;;;2.53;0.70;;;9.00;99.90;;;;;;4115039;28;20251;-81
2023/11/07 01:59:29;;;;;;;1.90;0.50;;;9.00;99.90;;;;;;4118793;28;20224;-81
2023/11/07 02:01:33;;;;;;;2.63;0.53;;;8.90;99.90;;;;;;4115265;28;20212;-80
2023/11/07 02:03:36;;;;;;;2.40;0.80;;;9.20;99.90;;;;;;4118270;28;20233;-81
2023/11/07 02:05:41;;;;;;;1.20;0.70;;;8.90;99.90;;;;;;4120394;28;20276;-81
2023/11/07 02:07:45;;;;;;;1.53;0.60;;;8.90;99.90;;;;;;4115485;28;20207;-81
2023/11/07 02:09:48;;;;;;;3.17;0.70;;;8.90;99.90;;;;;;4122169;28;20215;-80
2023/11/07 02:11:50;;;;;;;2.33;0.77;;;9.00;99.90;;;;;;4115072;28;20239;-82
2023/11/07 02:13:52;;;;;;;2.87;0.90;;;8.90;99.90;;;;;;4115819;28;20634;-81
2023/11/07 02:15:55;;;;;;;2.53;0.60;;;8.90;99.90;;;;;;4117684;28;20231;-82
2023/11/07 02:17:56;;;;;;;2.50;0.77;;;8.90;99.90;;;;;;4117284;28;20242;-80
2023/11/07 02:19:58;;;;;;;1.30;0.60;;;8.90;99.90;;;;;;4122323;28;20269;-83
2023/11/07 02:22:01;;;;;;;3.20;1.10;;;8.80;99.90;;;;;;4117805;28;20233;-82
2023/11/07 02:24:09;;;;;;;1.27;0.53;;;8.80;99.90;;;;;;4118326;28;20305;-81
2023/11/07 02:26:11;;;;;;;2.53;0.73;;;8.80;99.90;;;;;;4113785;28;20706;-80
2023/11/07 02:28:13;;;;;;;4.27;0.80;;;9.00;99.90;;;;;;4118293;28;20261;-81
2023/11/07 02:30:16;;;;;;;1.97;0.70;;;8.70;99.90;;;;;;4114065;28;21094;-81
2023/11/07 02:32:18;;;;;;;1.93;0.70;;;8.70;99.90;;;;;;4116360;28;20209;-81
2023/11/07 02:34:19;;;;;;;1.27;0.60;;;8.70;99.90;;;;;;4117740;28;20238;-81
2023/11/07 02:36:21;;;;;;;7.23;0.80;;;8.70;99.90;;;;;;4113594;28;20213;-80
2023/11/07 02:38:23;;;;;;;2.17;0.70;;;8.70;99.90;;;;;;4118976;28;20548;-81
2023/11/07 02:40:27;;;;;;;4.00;0.50;;;9.00;99.90;;;;;;4127261;28;20222;-82
2023/11/07 02:42:29;;;;;;;2.50;0.60;;;8.70;99.90;;;;;;4117155;28;20219;-82
2023/11/07 02:44:31;;;;;;;0.77;0.60;;;8.60;99.90;;;;;;4117970;28;20325;-82
2023/11/07 02:46:33;;;;;;;6.70;0.70;;;8.70;99.90;;;;;;4112376;28;20206;-81
2023/11/07 02:48:35;;;;;;;1.23;0.60;;;8.70;99.90;;;;;;4121417;28;20239;-82
2023/11/07 02:50:37;;;;;;;2.07;0.60;;;8.70;99.90;;;;;;4115592;28;20230;-83
2023/11/07 02:52:39;;;;;;;2.93;0.87;;;8.60;99.90;;;;;;4112624;28;20269;-83
2023/11/07 02:54:41;;;;;;;1.00;0.60;;;8.70;99.90;;;;;;4111982;28;20745;-81
2023/11/07 02:56:44;;;;;;;1.00;0.50;;;8.70;99.90;;;;;;4119960;28;20207;-84
2023/11/07 02:58:46;;;;;;;1.47;0.63;;;8.60;99.90;;;;;;4121507;28;20617;-81
2023/11/07 03:00:48;;;;;;;2.27;0.57;;;8.60;99.90;;;;;;4110345;28;20215;-82
2023/11/07 03:02:51;;;;;;;3.27;0.70;;;9.10;99.90;;;;;;4113762;28;20231;-83
2023/11/07 03:04:54;;;;;;;1.87;0.80;;;8.80;99.90;;;;;;4118073;28;20789;-83
2023/11/07 03:06:56;;;;;;;3.97;0.60;;;8.60;99.90;;;;;;4117190;28;20211;-82
2023/11/07 03:08:58;;;;;;;2.07;0.50;;;8.70;99.90;;;;;;4111197;28;20269;-81
2023/11/07 03:11:00;;;;;;;1.07;0.60;;;9.10;99.90;;;;;;4112513;28;20609;-82
2023/11/07 03:13:04;;;;;;;0.90;0.70;;;8.70;99.90;;;;;;4110560;28;20207;-83
2023/11/07 03:15:06;;;;;;;4.10;0.70;;;8.70;99.90;;;;;;4117190;28;20237;-82
2023/11/07 03:17:08;;;;;;;3.53;0.67;;;8.80;99.90;;;;;;4117524;28;20219;-81
2023/11/07 03:19:10;;;;;;;1.27;0.70;;;8.80;99.90;;;;;;4122280;28;20209;-82
2023/11/07 03:21:12;;;;;;;2.33;0.70;;;8.80;99.90;;;;;;4119420;28;20263;-83
2023/11/07 03:23:13;;;;;;;1.37;0.70;;;8.80;99.90;;;;;;4114959;28;20238;-82
2023/11/07 03:25:16;;;;;;;5.10;0.83;;;8.80;99.90;;;;;;4116027;28;20290;-81
2023/11/07 03:27:19;;;;;;;2.60;0.67;;;8.80;99.90;;;;;;4116634;28;20687;-81
2023/11/07 03:29:22;;;;;;;2.27;0.53;;;8.90;99.90;;;;;;4118639;28;20203;-80
2023/11/07 03:31:24;;;;;;;1.70;0.67;;;8.90;99.90;;;;;;4113316;28;20259;-81
2023/11/07 03:33:26;;;;;;;3.17;1.00;;;8.90;99.90;;;;;;4116569;28;20274;-82
2023/11/07 03:35:29;;;;;;;2.70;0.80;;;9.00;99.90;;;;;;4113046;28;20298;-82
2023/11/07 03:37:31;;;;;;;4.37;0.70;;;9.00;99.90;;;;;;4116476;28;20245;-81
2023/11/07 03:39:33;;;;;;;3.30;0.80;;;9.00;99.90;;;;;;4118990;28;20202;-81
2023/11/07 03:41:39;;;;;;;3.67;0.80;;;9.00;99.90;;;;;;4118629;28;20208;-82
2023/11/07 03:43:41;;;;;;;4.33;0.80;;;9.20;99.90;;;;;;4116318;28;20222;-81
2023/11/07 03:45:45;;;;;;;1.90;0.73;;;9.00;99.90;;;;;;4114015;28;20282;-82
2023/11/07 03:47:47;;;;;;;3.10;0.70;;;9.00;99.90;;;;;;4115383;28;20204;-82
2023/11/07 03:49:49;;;;;;;1.73;0.70;;;9.00;99.90;;;;;;4114040;28;20199;-84
2023/11/07 03:51:51;;;;;;;4.47;0.70;;;9.00;99.90;;;;;;4110373;28;20215;-82
2023/11/07 03:53:53;;;;;;;1.77;0.50;;;9.00;99.90;;;;;;4110361;28;20250;-82
2023/11/07 03:55:58;;;;;;;2.00;0.90;;;8.90;99.90;;;;;;4117219;28;20226;-81
2023/11/07 03:58:00;;;;;;;1.23;0.50;;;8.90;99.90;;;;;;4116882;28;20646;-82
2023/11/07 04:00:03;;;;;;;2.00;0.57;;;8.90;99.90;;;;;;4114986;28;20242;-81
2023/11/07 04:02:06;;;;;;;0.77;0.50;;;8.90;99.90;;;;;;4111410;28;20213;-82
2023/11/07 04:04:08;;;;;;;1.13;0.57;;;9.00;99.90;;;;;;4130041;28;20293;-81
2023/11/07 04:06:10;;;;;;;0.77;0.50;;;8.80;99.90;;;;;;4115161;28;20237;-82
2023/11/07 04:08:12;;;;;;;2.77;0.60;;;8.90;99.90;;;;;;4113252;28;20266;-81
2023/11/07 04:10:14;;;;;;;0.60;0.50;;;8.90;99.90;;;;;;4113996;28;20211;-81
2023/11/07 04:12:16;;;;;;;4.83;0.63;;;8.90;99.90;;;;;;4116174;28;20241;-82
2023/11/07 04:14:18;;;;;;;2.80;0.70;;;8.90;99.90;;;;;;4118124;28;20232;-82
2023/11/07 04:16:20;;;;;;;2.90;0.63;;;8.90;99.90;;;;;;4114087;28;20208;-83
2023/11/07 04:18:24;;;;;;;2.00;0.70;;;8.90;99.90;;;;;;4117349;28;20203;-82
2023/11/07 04:20:25;;;;;;;5.67;0.70;;;8.90;99.90;;;;;;4116774;28;20219;-84
2023/11/07 04:22:28;;;;;;;4.03;0.77;;;8.90;99.90;;;;;;4118651;28;20241;-82
2023/11/07 04:24:30;;;;;;;0.67;0.43;;;8.90;99.90;;;;;;4112729;28;20310;-82
2023/11/07 04:26:32;;;;;;;0.73;0.60;;;8.80;99.90;;;;;;4119130;28;20207;-84
2023/11/07 04:28:37;;;;;;;1.67;0.80;;;8.80;99.90;;;;;;4111456;28;21176;-84
2023/11/07 04:30:39;;;;;;;1.30;0.57;;;8.80;99.90;;;;;;4115056;28;20262;-82
2023/11/07 04:32:40;;;;;;;2.67;0.70;;;8.80;99.90;;;;;;4115007;28;20204;-82
2023/11/07 04:34:44;;;;;;;3.07;0.60;;;8.80;99.90;;;;;;4113214;28;20256;-83
2023/11/07 04:36:46;;;;;;;2.97;0.43;;;8.80;99.90;;;;;;4123683;28;20742;-83
2023/11/07 04:38:47;;;;;;;2.43;0.67;;;9.00;99.90;;;;;;4107814;28;20241;-83
2023/11/07 04:40:48;;;;;;;0.70;0.50;;;8.80;99.90;;;;;;4109995;28;20213;-84
2023/11/07 04:42:51;;;;;;;1.30;0.50;;;8.80;99.90;;;;;;4111318;28;20796;-84
2023/11/07 04:44:52;;;;;;;3.00;0.50;;;8.80;99.90;;;;;;4115638;28;20226;-85
2023/11/07 04:46:57;;;;;;;1.70;0.63;;;8.90;99.90;;;;;;4117536;28;20216;-84
2023/11/07 04:49:00;;;;;;;1.27;0.60;;;8.90;99.90;;;;;;4113573;28;20208;-83
2023/11/07 04:51:05;;;;;;;0.77;0.40;;;8.90;99.90;;;;;;4110242;28;20205;-82
2023/11/07 04:53:07;;;;;;;2.57;0.60;;;8.90;99.90;;;;;;4109948;28;20201;-83
2023/11/07 04:55:09;;;;;;;2.50;0.70;;;8.90;99.90;;;;;;4110326;28;20226;-81
2023/11/07 04:57:11;;;;;;;1.60;0.67;;;9.00;99.90;;;;;;4114466;28;20257;-83
2023/11/07 04:59:16;;;;;;;1.13;0.47;;;9.00;99.90;;;;;;4119213;28;20554;-85
2023/11/07 05:01:17;;;;;;;2.63;0.70;;;9.00;99.90;;;;;;4113096;28;20217;-81
2023/11/07 05:03:19;;;;;;;1.60;0.67;;;9.10;99.90;;;;;;4110342;28;20236;-80
2023/11/07 05:05:21;;;;;;;1.00;0.60;;;9.10;99.90;;;;;;4114297;28;20650;-80
2023/11/07 05:07:24;;;;;;;3.87;0.70;;;9.10;99.90;;;;;;4108322;28;20267;-84
2023/11/07 05:09:26;;;;;;;3.50;0.70;;;9.30;99.90;;;;;;4107395;28;20226;-85
2023/11/07 05:11:28;;;;;;;3.57;0.80;;;9.10;99.90;;;;;;4110874;28;20580;-82
2023/11/07 05:13:29;;;;;;;3.50;0.87;;;9.10;99.90;;;;;;4107409;28;20202;-84
2023/11/07 05:15:31;;;;;;;0.93;0.73;;;9.10;99.90;;;;;;4111908;28;20714;-85
2023/11/07 05:17:35;;;;;;;3.67;0.87;;;9.10;99.90;;;;;;4106520;28;20202;-85
2023/11/07 05:19:37;;;;;;;4.27;0.80;;;9.30;99.90;;;;;;4106563;28;20295;-84
2023/11/07 05:21:39;;;;;;;2.50;0.80;;;9.90;99.90;;;;;;4112884;28;20557;-84
2023/11/07 05:23:43;;;;;;;1.27;0.53;;;9.20;99.90;;;;;;4104779;28;20238;-85
2023/11/07 05:25:45;;;;;;;2.90;0.60;;;9.20;99.90;;;;;;4101368;28;20278;-85
2023/11/07 05:27:49;;;;;;;3.20;0.80;;;9.20;99.90;;;;;;4109179;28;20209;-82
2023/11/07 05:29:52;;;;;;;1.80;0.93;;;9.40;99.90;;;;;;4115644;28;20302;-82
2023/11/07 05:31:54;;;;;;;3.33;0.90;;;9.20;99.90;;;;;;4113434;28;20265;-81
2023/11/07 05:33:56;;;;;;;2.07;0.70;;;9.20;99.90;;;;;;4112661;28;20246;-83
2023/11/07 05:35:58;;;;;;;1.33;0.60;;;9.20;99.90;;;;;;4118871;28;20688;-84
2023/11/07 05:38:00;;;;;;;3.43;1.07;;;9.20;99.90;;;;;;4111760;28;20215;-84
2023/11/07 05:40:05;;;;;;;1.97;0.70;;;9.20;99.90;;;;;;4116050;28;20211;-83
2023/11/07 05:42:08;;;;;;;1.47;0.80;;;9.10;99.90;;;;;;4110665;28;20211;-84
2023/11/07 05:44:10;;;;;;;2.73;0.77;;;9.10;99.90;;;;;;4120342;28;20239;-82
2023/11/07 05:46:11;;;;;;;4.40;0.73;;;10.20;99.90;;;;;;4110751;28;20207;-82
2023/11/07 05:48:13;;;;;;;2.37;0.60;;;9.10;99.90;;;;;;4112983;28;20202;-82
2023/11/07 05:50:15;;;;;;;3.47;0.80;;;9.10;99.90;;;;;;4105808;28;20206;-81
2023/11/07 05:52:17;;;;;;;2.57;0.70;;;9.10;99.90;;;;;;4116778;28;20212;-83
2023/11/07 05:54:19;;;;;;;5.20;1.13;;;9.10;99.90;;;;;;4113925;28;20220;-82
2023/11/07 05:56:22;;;;;;;2.83;0.90;;;9.10;99.90;;;;;;4118288;28;20219;-82
2023/11/07 05:58:24;;;;;;;1.90;0.93;;;9.10;99.90;;;;;;4118900;28;20227;-82
2023/11/07 06:00:26;;;;;;;2.80;0.80;;;9.10;99.90;;;;;;4117454;28;20287;-83
2023/11/07 06:02:28;;;;;;;2.27;0.70;;;9.10;99.90;;;;;;4109400;28;20619;-83
2023/11/07 06:04:36;;;;;;;1.90;0.80;;;9.10;99.90;;;;;;4109247;28;20232;-84
2023/11/07 06:06:38;;;;;;;2.17;0.90;;;9.10;99.90;;;;;;4119506;28;20673;-84
2023/11/07 06:08:40;;;;;;;3.83;0.80;;;9.10;99.90;;;;;;4117449;28;20269;-85
2023/11/07 06:10:41;;;;;;;2.70;1.00;;;9.40;99.90;;;;;;4114141;28;20212;-81
2023/11/07 06:12:44;;;;;;;2.30;0.87;;;9.20;99.90;;;;;;4115936;28;20211;-82
2023/11/07 06:14:45;;;;;;;4.13;1.10;;;9.10;99.90;;;;;;4112693;28;20263;-79
2023/11/07 06:16:47;;;;;;;3.20;0.80;;;9.10;99.90;;;;;;4114290;28;20199;-80
2023/11/07 06:18:49;;;;;;;1.80;0.60;;;9.10;99.90;;;;;;4120791;28;20216;-82
2023/11/07 06:20:53;;;;;;;3.90;0.73;;;9.10;99.90;;;;;;4117907;28;20207;-83
2023/11/07 06:22:55;;;;;;;3.30;1.00;;;9.40;99.90;;;;;;4119187;28;20667;-81
2023/11/07 06:24:57;;;;;;;1.70;0.80;;;9.10;99.90;;;;;;4116217;28;20243;-80
2023/11/07 06:26:59;;;;;;;1.80;0.73;;;9.10;99.90;;;;;;4111055;28;20269;-83
2023/11/07 06:29:01;;;;;;;2.43;0.73;;;9.10;99.90;;;;;;4109650;28;20214;-81
2023/11/07 06:31:03;;;;;;;1.47;1.00;;;9.30;99.90;;;;;;4106403;28;20278;-80
2023/11/07 06:33:05;;;;;;;4.80;1.20;;;9.10;99.90;;;;;;4108104;28;20229;-83
2023/11/07 06:35:08;;;;;;;6.13;2.43;;;9.10;99.90;;;;;;4115075;28;20227;-82
2023/11/07 06:37:10;;;;;;;5.73;1.70;;;9.10;99.90;;;;;;4109269;28;20214;-83
2023/11/07 06:39:12;;;;;;;2.83;1.30;;;9.00;99.90;;;;;;4101566;28;20212;-83
2023/11/07 06:41:14;;;;;;;4.67;1.07;;;9.00;99.90;;;;;;4100489;28;20294;-83
2023/11/07 06:43:17;;;;;;;2.70;0.90;;;9.00;99.90;;;;;;4109587;28;20267;-80
2023/11/07 06:45:20;;;;;;;5.57;1.40;;;9.00;99.90;;;;;;4110742;28;20238;-80
2023/11/07 06:47:22;;;;;;;1.93;0.83;;;9.00;99.90;;;;;;4106376;28;20242;-87
2023/11/07 06:49:25;;;;;;;3.00;1.03;;;9.00;99.90;;;;;;4114076;28;20244;-83
2023/11/07 06:51:27;;;;;;;3.37;1.07;;;9.00;99.90;;;;;;4115218;28;20211;-83
2023/11/07 06:53:30;;;;;;;4.07;1.10;;;9.00;99.90;;;;;;4107990;28;20735;-82
2023/11/07 06:55:33;;;;;;;2.40;0.80;;;9.00;99.90;;;;;;4103622;28;20236;-82
2023/11/07 06:57:35;;;;;;;3.50;0.97;;;8.90;99.90;;;;;;4107356;28;20757;-85
2023/11/07 06:59:37;;;;;;;3.03;1.03;;;8.90;99.90;;;;;;4105367;28;20212;-83
2023/11/07 07:01:56;;;;;;;2.57;1.10;;;8.80;99.90;;;;;;4110263;28;20706;-83
2023/11/07 07:03:59;;;;;;;3.90;1.00;;;9.00;99.90;;;;;;4115339;28;20222;-83
2023/11/07 07:06:00;;;;;;;2.47;1.10;;;8.90;99.90;;;;;;4109476;28;20218;-83
2023/11/07 07:08:03;;;;;;;3.73;1.07;;;8.90;99.90;;;;;;4112144;28;20603;-83
2023/11/07 07:10:06;;;;;;;2.43;1.00;;;8.90;99.90;;;;;;4110260;28;20225;-83
2023/11/07 07:12:08;;;;;;;1.67;0.90;;;8.90;99.90;;;;;;4111562;28;20219;-83
2023/11/07 07:14:12;;;;;;;1.83;0.80;;;8.90;99.90;;;;;;4110637;28;20683;-82
2023/11/07 07:16:15;;;;;;;4.10;1.10;;;8.90;99.90;;;;;;4111119;28;20560;-82
2023/11/07 07:18:22;;;;;;;4.00;1.10;;;8.90;99.90;;;;;;4105982;28;20221;-83
2023/11/07 07:20:24;;;;;;;3.90;1.60;;;9.40;99.90;;;;;;4106042;28;20234;-83
2023/11/07 07:22:28;;;;;;;4.30;1.30;;;9.00;99.90;;;;;;4106531;28;20298;-83
2023/11/07 07:24:31;;;;;;;4.93;1.43;;;9.00;99.90;;;;;;4113305;28;20259;-83
2023/11/07 07:26:35;;;;;;;6.20;1.20;;;9.00;99.90;;;;;;4104238;28;20215;-83
2023/11/07 07:28:38;;;;;;;4.57;1.20;;;9.10;99.90;;;;;;4110596;28;20221;-83
2023/11/07 07:30:40;;;;;;;4.33;1.00;;;9.10;99.90;;;;;;4113476;28;20207;-84
2023/11/07 07:32:42;;;;;;;2.27;1.10;;;9.10;99.90;;;;;;4114242;28;20638;-81
2023/11/07 07:34:45;;;;;;;5.57;1.07;;;9.10;99.90;;;;;;4112077;28;20225;-82
2023/11/07 07:36:47;;;;;;;2.90;1.20;;;9.20;99.90;;;;;;4112162;28;20807;-82
2023/11/07 07:39:18;;;;;;;3.30;1.10;;;9.20;99.90;;;;;;4109283;28;20223;-82
2023/11/07 07:41:20;;;;;;;4.50;1.50;;;9.20;99.90;;;;;;4109379;28;20440;-82
2023/11/07 07:43:22;;;;;;;2.17;1.20;;;9.30;99.90;;;;;;4117891;28;20277;-82
2023/11/07 07:45:29;;;;;;;6.73;2.30;;;9.30;99.90;;;;;;4116153;28;20254;-82
2023/11/07 07:47:29;;;;;;;4.70;0.97;;;9.30;99.90;;;;;;4110282;28;20278;-82
2023/11/07 07:49:53;;;;;;;4.73;1.10;;;9.30;99.90;;;;;;4107292;28;20214;-82
2023/11/07 07:51:55;;;;;;;4.87;1.47;;;9.30;99.90;;;;;;4111614;28;20201;-83
2023/11/07 07:53:57;;;;;;;3.07;1.20;;;9.30;99.90;;;;;;4105393;28;20212;-83
2023/11/07 07:56:00;;;;;;;5.30;1.20;;;9.60;99.90;;;;;;4109807;28;20333;-82
2023/11/07 07:58:02;;;;;;;3.47;1.00;;;9.30;99.90;;;;;;4109401;28;20297;-82
2023/11/07 08:00:11;;;;;;;2.27;1.00;;;9.30;99.90;;;;;;4104732;28;20211;-82
2023/11/07 08:02:13;;;;;;;2.13;1.00;;;9.30;99.90;;;;;;4110624;28;20671;-82
2023/11/07 08:04:22;;;;;;;4.80;1.10;;;9.30;99.90;;;;;;4124863;28;20270;-82
2023/11/07 08:06:25;;;;;;;3.63;1.10;;;9.10;99.90;;;;;;4108325;28;20208;-83
2023/11/07 08:08:27;;;;;;;3.03;1.10;;;9.30;99.90;;;;;;4107142;28;20845;-83
2023/11/07 08:10:29;;;;;;;2.90;1.20;;;9.30;99.90;;;;;;4110679;28;20207;-83
2023/11/07 08:12:36;;;;;;;6.03;1.20;;;9.40;99.90;;;;;;4109643;28;20357;-83
2023/11/07 08:14:38;;;;;;;3.20;1.10;;;9.40;99.90;;;;;;4116304;28;20599;-83
2023/11/07 08:16:41;;;;;;;5.03;1.23;;;9.40;99.90;;;;;;4114576;28;20254;-82
2023/11/07 08:19:00;;;;;;;4.40;1.33;;;9.50;99.90;;;;;;4112127;28;20216;-82
2023/11/07 08:21:05;;;;;;;3.73;1.13;;;9.40;99.90;;;;;;4103258;28;20209;-82
2023/11/07 08:23:08;;;;;;;6.50;1.27;;;9.70;99.90;;;;;;4106467;28;20315;-82
2023/11/07 08:25:13;;;;;;;9.47;1.13;;;9.40;99.90;;;;;;4108666;28;20327;-82
2023/11/07 08:27:14;;;;;;;13.53;1.73;;;9.50;99.90;;;;;;4104462;28;20208;-83
2023/11/07 08:29:18;;;;;;;2.87;1.17;;;9.50;99.90;;;;;;4105304;28;20260;-82
2023/11/07 08:31:40;;;;;;;4.10;1.10;;;9.50;99.90;;;;;;4112994;28;20271;-82
2023/11/07 08:33:43;;;;;;;3.67;1.00;;;9.50;99.90;;;;;;4110678;28;20201;-83
2023/11/07 08:36:06;;;;;;;2.60;1.27;;;9.50;99.90;;;;;;4109145;28;21771;-81
2023/11/07 08:38:13;;;;;;;4.70;1.37;;;9.60;99.90;;;;;;4129572;28;20675;-82
2023/11/07 08:40:19;;;;;;;4.17;1.20;;;9.70;99.90;;;;;;4121426;28;20211;-84
2023/11/07 08:42:21;;;;;;;6.83;1.20;;;9.90;99.90;;;;;;4107476;28;20296;-84
2023/11/07 08:44:24;;;;;;;3.30;1.00;;;9.70;99.90;;;;;;4109979;28;20238;-85
2023/11/07 08:46:25;;;;;;;3.57;0.90;;;9.80;99.90;;;;;;4108200;28;20309;-84
2023/11/07 08:48:28;;;;;;;2.47;1.00;;;9.80;99.90;;;;;;4113000;28;20229;-85
2023/11/07 08:50:32;;;;;;;8.87;1.17;;;9.80;99.90;;;;;;4111103;28;20216;-84
2023/11/07 08:52:34;;;;;;;2.10;0.83;;;9.90;99.90;;;;;;4110494;28;20208;-83
2023/11/07 08:54:37;;;;;;;3.70;1.00;;;9.90;99.90;;;;;;4108002;28;20441;-84
2023/11/07 08:56:39;;;;;;;2.47;0.80;;;10.00;99.90;;;;;;4114185;28;20254;-83
2023/11/07 08:58:41;;;;;;;3.40;0.70;;;10.10;99.90;;;;;;4115258;28;20208;-84
2023/11/07 09:00:44;;;;;;;4.00;0.83;;;10.20;99.90;;;;;;4112770;28;20243;-85
2023/11/07 09:02:46;;;;;;;3.13;0.80;;;10.10;99.90;;;;;;4122013;28;20219;-84
2023/11/07 09:04:48;;;;;;;3.53;0.70;;;10.20;99.90;;;;;;4117151;28;20236;-84
2023/11/07 09:06:50;;;;;;;1.23;0.60;;;10.20;99.90;;;;;;4117751;28;20244;-85
2023/11/07 09:08:54;;;;;;;2.03;1.10;;;10.30;99.90;;;;;;4108486;28;20270;-84
2023/11/07 09:11:17;;;;;;;4.60;0.80;;;10.30;99.90;;;;;;4108398;28;20234;-83
2023/11/07 09:13:19;;;;;;;1.97;0.57;;;10.50;99.90;;;;;;4113788;28;20209;-83
2023/11/07 09:15:23;;;;;;;1.43;0.70;;;10.50;99.90;;;;;;4109691;28;20595;-84
2023/11/07 09:17:36;;;;;;;3.37;0.63;;;10.50;99.90;;;;;;4110924;28;20834;-85
2023/11/07 09:20:01;;;;;;;2.30;0.80;;;10.30;99.90;;;;;;4108673;28;20662;-82
2023/11/07 09:22:04;;;;;;;0.90;0.53;;;10.60;99.90;;;;;;4108064;28;20655;-83
2023/11/07 09:24:07;;;;;;;2.03;0.60;;;10.70;99.90;;;;;;4101685;28;20259;-82
2023/11/07 09:26:10;;;;;;;2.40;0.73;;;10.50;99.90;;;;;;4108922;28;20224;-83
2023/11/07 09:28:13;;;;;;;2.57;0.80;;;10.80;99.90;;;;;;4101499;28;20216;-83
2023/11/07 09:30:14;;;;;;;1.50;0.90;;;10.90;99.90;;;;;;4107694;28;20209;-83
2023/11/07 09:32:17;;;;;;;3.60;0.90;;;10.90;99.90;;;;;;4102268;28;20220;-83
2023/11/07 09:34:20;;;;;;;3.33;0.80;;;11.00;99.90;;;;;;4104414;28;20251;-83
2023/11/07 09:36:22;;;;;;;3.67;0.70;;;11.10;99.90;;;;;;4112423;28;20206;-83
2023/11/07 09:38:44;;;;;;;0.93;0.60;;;11.20;99.90;;;;;;4105084;28;20284;-83
2023/11/07 09:40:46;;;;;;;1.90;0.70;;;11.20;99.90;;;;;;4108079;28;20287;-82
2023/11/07 09:42:50;;;;;;;3.80;0.60;;;11.30;99.90;;;;;;4103970;28;20202;-82
2023/11/07 09:44:54;;;;;;;1.33;0.60;;;11.40;99.90;;;;;;4111414;28;20226;-83
2023/11/07 09:46:57;;;;;;;1.87;0.60;;;11.50;99.90;;;;;;4108448;28;20216;-83
2023/11/07 09:49:00;;;;;;;1.60;0.70;;;11.60;99.90;;;;;;4103599;28;20194;-85
2023/11/07 09:51:05;;;;;;;3.43;0.80;;;11.60;99.90;;;;;;4112217;28;20633;-82
2023/11/07 09:53:14;;;;;;;1.60;0.60;;;11.70;99.90;;;;;;4122013;28;20703;-82
2023/11/07 09:55:16;;;;;;;1.30;0.50;;;11.80;99.90;;;;;;4114998;28;20624;-82
2023/11/07 09:57:22;;;;;;;4.57;0.60;;;11.70;99.90;;;;;;4112083;28;20202;-83
2023/11/07 09:59:34;;;;;;;1.10;0.60;;;11.70;99.90;;;;;;4108891;28;20771;-82
2023/11/07 10:01:38;;;;;;;1.60;0.60;;;11.70;99.90;;;;;;4114446;28;20209;-82
2023/11/07 10:03:43;;;;;;;2.77;0.70;;;11.80;99.90;;;;;;4112216;28;20259;-81
2023/11/07 10:05:47;;;;;;;0.50;0.50;;;11.70;99.90;;;;;;4110322;28;20226;-81
2023/11/07 10:07:49;;;;;;;1.40;0.60;;;12.00;99.90;;;;;;4111587;28;20580;-83
2023/11/07 10:10:02;;;;;;;1.50;0.63;;;11.70;99.90;;;;;;4110131;28;20751;-82
2023/11/07 10:12:15;;;;;;;1.67;0.67;;;11.70;99.90;;;;;;4109824;28;20220;-82
2023/11/07 10:14:18;;;;;;;1.40;0.50;;;11.70;99.90;;;;;;4116567;28;20240;-84
2023/11/07 10:16:20;;;;;;;2.87;0.60;;;11.70;99.90;;;;;;4114275;28;20209;-82
2023/11/07 10:18:24;;;;;;;3.67;0.80;;;11.70;99.90;;;;;;4117513;28;20213;-86
2023/11/07 10:20:27;;;;;;;1.60;0.57;;;11.70;99.90;;;;;;4118633;28;20214;-84
2023/11/07 10:22:29;;;;;;;2.60;0.90;;;11.70;99.90;;;;;;4118114;28;20705;-84
2023/11/07 10:24:43;;;;;;;2.33;0.50;;;11.70;99.90;;;;;;4123673;28;20229;-83
2023/11/07 10:26:53;;;;;;;3.00;0.57;;;11.70;99.90;;;;;;4119745;28;20205;-84
2023/11/07 10:29:04;;;;;;;1.97;0.60;;;11.70;99.90;;;;;;4118357;28;20233;-85
2023/11/07 10:31:18;;;;;;;1.77;0.60;;;11.70;99.90;;;;;;4116284;28;20305;-80
2023/11/07 10:33:28;;;;;;;3.53;0.70;;;11.70;99.90;;;;;;4116036;28;20266;-80
2023/11/07 10:35:30;;;;;;;1.17;0.50;;;11.80;99.90;;;;;;4116061;28;20584;-79
2023/11/07 10:37:37;;;;;;;1.37;0.50;;;11.80;99.90;;;;;;4115913;28;20229;-79
2023/11/07 10:39:39;;;;;;;1.87;0.67;;;12.10;99.90;;;;;;4114385;28;20206;-82
2023/11/07 10:41:40;;;;;;;1.77;0.67;;;11.80;99.90;;;;;;4114898;28;20198;-80
2023/11/07 10:43:42;;;;;;;1.33;0.70;;;11.80;99.90;;;;;;4106823;28;20284;-82
2023/11/07 10:45:43;;;;;;;1.33;0.67;;;11.80;99.90;;;;;;4110197;28;20222;-79
2023/11/07 10:47:48;;;;;;;2.67;1.00;;;11.90;99.90;;;;;;4111423;28;20199;-79
2023/11/07 10:49:54;;;;;;;3.37;0.80;;;11.90;99.90;;;;;;4117661;28;20206;-80